createdAt,value
2019-03-05T00:00:04.348Z,4.60
2019-03-05T00:01:04.393Z,4.60
2019-03-05T00:02:05.130Z,4.60
2019-03-05T00:03:05.186Z,4.60
2019-03-05T00:04:04.309Z,4.60
2019-03-05T00:05:04.942Z,4.60
2019-03-05T00:06:04.205Z,4.60
2019-03-05T00:07:04.665Z,4.60
2019-03-05T00:08:05.060Z,4.70
2019-03-05T00:09:05.145Z,4.60
2019-03-05T00:10:04.629Z,4.70
2019-03-05T00:11:04.647Z,4.70
2019-03-05T00:12:05.049Z,4.70
2019-03-05T00:13:04.644Z,4.70
2019-03-05T00:14:04.734Z,4.70
2019-03-05T00:15:04.752Z,4.70
2019-03-05T00:16:04.916Z,4.70
2019-03-05T00:17:05.079Z,4.70
2019-03-05T00:18:05.181Z,4.70
2019-03-05T00:19:05.208Z,4.70
2019-03-05T00:20:04.667Z,4.80
2019-03-05T00:21:04.601Z,4.80
2019-03-05T00:22:04.672Z,4.80
2019-03-05T00:23:04.839Z,4.80
2019-03-05T00:24:05.100Z,4.80
2019-03-05T00:25:05.054Z,4.80
2019-03-05T00:26:04.764Z,4.80
2019-03-05T00:27:05.142Z,4.90
2019-03-05T00:28:05.141Z,4.90
2019-03-05T00:29:09.348Z,4.90
2019-03-05T00:30:04.729Z,4.90
2019-03-05T00:31:04.859Z,4.90
2019-03-05T00:32:05.110Z,4.90
2019-03-05T00:33:05.088Z,4.90
2019-03-05T00:34:05.182Z,4.90
2019-03-05T00:35:05.103Z,4.90
2019-03-05T00:36:04.291Z,4.90
2019-03-05T00:37:04.404Z,4.90
2019-03-05T00:38:04.265Z,5.00
2019-03-05T00:39:04.445Z,5.00
2019-03-05T00:40:04.497Z,4.90
2019-03-05T00:41:04.577Z,5.00
2019-03-05T00:42:04.558Z,5.00
2019-03-05T00:43:04.167Z,5.00
2019-03-05T00:44:04.214Z,5.00
2019-03-05T00:45:04.847Z,5.00
2019-03-05T00:46:04.197Z,5.00
2019-03-05T00:47:04.402Z,5.00
2019-03-05T00:48:04.534Z,5.00
2019-03-05T00:49:04.620Z,5.00
2019-03-05T00:50:04.209Z,5.10
2019-03-05T00:51:04.714Z,5.10
2019-03-05T00:52:04.768Z,5.10
2019-03-05T00:53:04.846Z,5.10
2019-03-05T00:54:04.946Z,5.10
2019-03-05T00:55:04.965Z,5.10
2019-03-05T00:56:04.307Z,5.10
2019-03-05T00:57:04.725Z,5.10
2019-03-05T00:58:04.926Z,5.10
2019-03-05T00:59:04.397Z,5.10
2019-03-05T01:00:09.656Z,5.10
2019-03-05T01:01:05.021Z,5.20
2019-03-05T01:02:05.133Z,5.20
2019-03-05T01:03:04.303Z,5.20
2019-03-05T01:04:04.670Z,5.20
2019-03-05T01:05:05.036Z,5.20
2019-03-05T01:06:04.374Z,5.20
2019-03-05T01:07:04.464Z,5.20
2019-03-05T01:08:04.589Z,5.20
2019-03-05T01:09:04.862Z,5.20
2019-03-05T01:10:05.097Z,5.20
2019-03-05T01:11:04.300Z,5.20
2019-03-05T01:12:04.783Z,5.20
2019-03-05T01:13:04.316Z,5.20
2019-03-05T01:14:04.431Z,5.20
2019-03-05T01:15:04.906Z,5.20
2019-03-05T01:16:04.456Z,5.20
2019-03-05T01:17:04.485Z,5.20
2019-03-05T01:18:04.508Z,5.20
2019-03-05T01:19:04.601Z,5.20
2019-03-05T01:20:04.765Z,5.20
2019-03-05T01:21:04.783Z,5.20
2019-03-05T01:22:04.240Z,5.20
2019-03-05T01:23:04.377Z,5.20
2019-03-05T01:24:04.631Z,5.20
2019-03-05T01:25:04.693Z,5.20
2019-03-05T01:26:04.808Z,5.10
2019-03-05T01:27:04.862Z,5.10
2019-03-05T01:28:05.042Z,5.10
2019-03-05T01:29:09.458Z,5.10
2019-03-05T01:30:04.982Z,5.10
2019-03-05T01:31:05.026Z,5.10
2019-03-05T01:32:05.031Z,5.10
2019-03-05T01:33:05.201Z,5.10
2019-03-05T01:34:05.217Z,5.10
2019-03-05T01:35:04.260Z,5.10
2019-03-05T01:36:04.387Z,5.10
2019-03-05T01:37:04.533Z,5.10
2019-03-05T01:38:04.389Z,5.10
2019-03-05T01:39:04.673Z,5.10
2019-03-05T01:40:04.870Z,5.10
2019-03-05T01:41:05.080Z,5.10
2019-03-05T01:42:04.611Z,5.00
2019-03-05T01:43:04.922Z,5.10
2019-03-05T01:44:04.487Z,5.00
2019-03-05T01:45:04.519Z,5.00
2019-03-05T01:46:04.453Z,5.00
2019-03-05T01:47:04.528Z,5.00
2019-03-05T01:48:04.756Z,5.00
2019-03-05T01:49:10.171Z,5.00
2019-03-05T01:50:04.624Z,5.00
2019-03-05T01:51:05.033Z,5.00
2019-03-05T01:52:05.052Z,5.00
2019-03-05T01:53:04.334Z,5.00
2019-03-05T01:54:04.296Z,5.00
2019-03-05T01:55:04.419Z,5.00
2019-03-05T01:56:04.872Z,5.00
2019-03-05T01:57:05.029Z,5.00
2019-03-05T01:58:05.091Z,5.00
2019-03-05T01:59:04.172Z,5.00
2019-03-05T02:00:04.440Z,4.90
2019-03-05T02:01:04.468Z,5.00
2019-03-05T02:02:04.333Z,4.90
2019-03-05T02:03:04.268Z,4.90
2019-03-05T02:04:04.606Z,4.90
2019-03-05T02:05:05.099Z,4.90
2019-03-05T02:06:05.176Z,4.90
2019-03-05T02:07:04.739Z,4.90
2019-03-05T02:08:04.302Z,4.90
2019-03-05T02:09:04.619Z,4.80
2019-03-05T02:10:04.724Z,4.80
2019-03-05T02:11:05.102Z,4.80
2019-03-05T02:12:05.188Z,4.80
2019-03-05T02:13:04.274Z,4.80
2019-03-05T02:14:04.957Z,4.80
2019-03-05T02:15:04.912Z,4.80
2019-03-05T02:16:04.509Z,4.80
2019-03-05T02:17:04.810Z,4.80
2019-03-05T02:18:04.697Z,4.80
2019-03-05T02:19:04.797Z,4.70
2019-03-05T02:20:04.464Z,4.70
2019-03-05T02:21:04.773Z,4.70
2019-03-05T02:22:04.755Z,4.70
2019-03-05T02:23:04.954Z,4.70
2019-03-05T02:24:05.002Z,4.70
2019-03-05T02:25:05.136Z,4.70
2019-03-05T02:26:04.158Z,4.70
2019-03-05T02:27:04.436Z,4.70
2019-03-05T02:28:05.078Z,4.70
2019-03-05T02:29:10.089Z,4.70
2019-03-05T02:30:04.406Z,4.70
2019-03-05T02:31:05.135Z,4.70
2019-03-05T02:32:04.241Z,4.70
2019-03-05T02:33:04.916Z,4.70
2019-03-05T02:34:05.047Z,4.70
2019-03-05T02:35:04.257Z,4.70
2019-03-05T02:36:04.556Z,4.60
2019-03-05T02:37:04.733Z,4.60
2019-03-05T02:38:05.817Z,4.60
2019-03-05T02:39:04.851Z,4.60
2019-03-05T02:40:04.182Z,4.60
2019-03-05T02:41:04.220Z,4.70
2019-03-05T02:42:04.370Z,4.60
2019-03-05T02:43:04.450Z,4.70
2019-03-05T02:44:04.940Z,4.60
2019-03-05T02:45:04.987Z,4.70
2019-03-05T02:46:04.909Z,4.70
2019-03-05T02:47:04.428Z,4.70
2019-03-05T02:48:04.505Z,4.70
2019-03-05T02:49:04.793Z,4.70
2019-03-05T02:50:04.160Z,4.70
2019-03-05T02:51:04.233Z,4.70
2019-03-05T02:52:04.344Z,4.70
2019-03-05T02:53:04.497Z,4.70
2019-03-05T02:54:05.063Z,4.70
2019-03-05T02:55:04.246Z,4.70
2019-03-05T02:56:04.739Z,4.70
2019-03-05T02:57:04.841Z,4.70
2019-03-05T02:58:04.510Z,4.70
2019-03-05T02:59:04.533Z,4.70
2019-03-05T03:00:04.529Z,4.70
2019-03-05T03:01:04.622Z,4.70
2019-03-05T03:02:05.002Z,4.70
2019-03-05T03:03:05.160Z,4.70
2019-03-05T03:04:04.171Z,4.70
2019-03-05T03:05:04.243Z,4.70
2019-03-05T03:06:04.815Z,4.70
2019-03-05T03:07:04.872Z,4.70
2019-03-05T03:08:04.416Z,4.80
2019-03-05T03:09:04.673Z,4.80
2019-03-05T03:10:05.045Z,4.70
2019-03-05T03:11:05.128Z,4.80
2019-03-05T03:12:04.508Z,4.80
2019-03-05T03:13:04.660Z,4.80
2019-03-05T03:14:04.680Z,4.80
2019-03-05T03:15:04.500Z,4.80
2019-03-05T03:16:04.468Z,4.80
2019-03-05T03:17:04.559Z,4.80
2019-03-05T03:18:04.812Z,4.80
2019-03-05T03:19:04.862Z,4.80
2019-03-05T03:20:04.364Z,4.80
2019-03-05T03:21:04.609Z,4.80
2019-03-05T03:22:04.969Z,4.80
2019-03-05T03:23:04.913Z,4.80
2019-03-05T03:24:05.001Z,4.80
2019-03-05T03:25:04.507Z,4.80
2019-03-05T03:26:05.023Z,4.80
2019-03-05T03:27:05.110Z,4.80
2019-03-05T03:28:04.410Z,4.80
2019-03-05T03:29:09.539Z,4.80
2019-03-05T03:30:04.829Z,4.80
2019-03-05T03:31:04.516Z,4.80
2019-03-05T03:32:04.410Z,4.80
2019-03-05T03:33:04.569Z,4.70
2019-03-05T03:34:04.727Z,4.70
2019-03-05T03:35:04.760Z,4.70
2019-03-05T03:36:04.914Z,4.70
2019-03-05T03:37:04.981Z,4.70
2019-03-05T03:38:05.014Z,4.70
2019-03-05T03:39:05.224Z,4.70
2019-03-05T03:40:06.128Z,4.70
2019-03-05T03:41:04.955Z,4.70
2019-03-05T03:42:04.478Z,4.70
2019-03-05T03:43:04.792Z,4.70
2019-03-05T03:44:04.967Z,4.70
2019-03-05T03:45:04.929Z,4.70
2019-03-05T03:46:04.886Z,4.70
2019-03-05T03:47:04.909Z,4.60
2019-03-05T03:48:04.187Z,4.70
2019-03-05T03:49:04.271Z,4.60
2019-03-05T03:50:04.692Z,4.60
2019-03-05T03:51:09.818Z,4.60
2019-03-05T03:52:04.389Z,4.60
2019-03-05T03:53:04.600Z,4.60
2019-03-05T03:54:04.711Z,4.60
2019-03-05T03:55:04.874Z,4.60
2019-03-05T03:56:05.266Z,4.60
2019-03-05T03:57:04.282Z,4.60
2019-03-05T03:58:04.803Z,4.60
2019-03-05T03:59:04.242Z,4.60
2019-03-05T04:00:04.314Z,4.60
2019-03-05T04:01:06.905Z,4.60
2019-03-05T04:02:04.897Z,4.70
2019-03-05T04:03:04.255Z,4.70
2019-03-05T04:04:04.594Z,4.70
2019-03-05T04:05:04.713Z,4.70
2019-03-05T04:06:04.921Z,4.70
2019-03-05T04:07:04.865Z,4.70
2019-03-05T04:08:05.024Z,4.70
2019-03-05T04:09:04.975Z,4.70
2019-03-05T04:10:05.038Z,4.70
2019-03-05T04:11:05.131Z,4.70
2019-03-05T04:12:05.106Z,4.70
2019-03-05T04:13:04.171Z,4.70
2019-03-05T04:14:04.797Z,4.70
2019-03-05T04:15:05.046Z,4.70
2019-03-05T04:16:04.580Z,4.70
2019-03-05T04:17:05.105Z,4.70
2019-03-05T04:18:04.388Z,4.70
2019-03-05T04:19:04.500Z,4.70
2019-03-05T04:20:04.551Z,4.70
2019-03-05T04:21:05.203Z,4.70
2019-03-05T04:22:04.593Z,4.70
2019-03-05T04:23:04.526Z,4.70
2019-03-05T04:24:04.640Z,4.70
2019-03-05T04:25:04.780Z,4.70
2019-03-05T04:26:05.161Z,4.70
2019-03-05T04:27:05.231Z,4.70
2019-03-05T04:28:04.505Z,4.70
2019-03-05T04:29:10.067Z,4.70
2019-03-05T04:30:04.471Z,4.70
2019-03-05T04:31:04.528Z,4.70
2019-03-05T04:32:05.078Z,4.70
2019-03-05T04:33:05.256Z,4.70
2019-03-05T04:34:04.593Z,4.60
2019-03-05T04:35:04.671Z,4.60
2019-03-05T04:36:04.863Z,4.60
2019-03-05T04:37:04.922Z,4.60
2019-03-05T04:38:04.940Z,4.60
2019-03-05T04:39:05.132Z,4.60
2019-03-05T04:40:04.473Z,4.60
2019-03-05T04:41:04.929Z,4.60
2019-03-05T04:42:05.087Z,4.60
2019-03-05T04:43:04.186Z,4.60
2019-03-05T04:44:04.348Z,4.60
2019-03-05T04:45:04.300Z,4.60
2019-03-05T04:46:04.727Z,4.60
2019-03-05T04:47:05.017Z,4.60
2019-03-05T04:48:04.894Z,4.60
2019-03-05T04:49:05.076Z,4.60
2019-03-05T04:50:04.530Z,4.60
2019-03-05T04:51:04.941Z,4.60
2019-03-05T04:52:04.552Z,4.60
2019-03-05T04:53:05.076Z,4.60
2019-03-05T04:54:05.089Z,4.60
2019-03-05T04:55:04.748Z,4.60
2019-03-05T04:56:05.142Z,4.60
2019-03-05T04:57:04.285Z,4.60
2019-03-05T04:58:04.865Z,4.60
2019-03-05T04:59:09.399Z,4.60
2019-03-05T05:00:04.893Z,4.60
2019-03-05T05:01:04.906Z,4.60
2019-03-05T05:02:05.004Z,4.60
2019-03-05T05:03:05.059Z,4.60
2019-03-05T05:04:04.499Z,4.60
2019-03-05T05:05:04.563Z,4.60
2019-03-05T05:06:04.996Z,4.60
2019-03-05T05:07:05.076Z,4.60
2019-03-05T05:08:04.254Z,4.60
2019-03-05T05:09:04.412Z,4.60
2019-03-05T05:10:04.621Z,4.60
2019-03-05T05:11:04.265Z,4.60
2019-03-05T05:12:04.827Z,4.60
2019-03-05T05:13:04.870Z,4.60
2019-03-05T05:14:04.226Z,4.60
2019-03-05T05:15:04.351Z,4.60
2019-03-05T05:16:04.445Z,4.60
2019-03-05T05:17:04.705Z,4.60
2019-03-05T05:18:05.008Z,4.60
2019-03-05T05:19:04.247Z,4.60
2019-03-05T05:20:04.798Z,4.60
2019-03-05T05:21:04.408Z,4.60
2019-03-05T05:22:04.500Z,4.60
2019-03-05T05:23:04.751Z,4.60
2019-03-05T05:24:04.723Z,4.60
2019-03-05T05:25:05.116Z,4.60
2019-03-05T05:26:04.996Z,4.70
2019-03-05T05:27:04.395Z,4.70
2019-03-05T05:28:04.949Z,4.70
2019-03-05T05:29:10.096Z,4.70
2019-03-05T05:30:04.429Z,4.70
2019-03-05T05:31:04.607Z,4.70
2019-03-05T05:32:04.588Z,4.70
2019-03-05T05:33:04.680Z,4.70
2019-03-05T05:34:04.533Z,4.70
2019-03-05T05:35:04.454Z,4.70
2019-03-05T05:36:04.586Z,4.80
2019-03-05T05:37:05.180Z,4.80
2019-03-05T05:38:04.500Z,4.80
2019-03-05T05:39:04.420Z,4.80
2019-03-05T05:40:04.803Z,4.80
2019-03-05T05:41:04.954Z,4.80
2019-03-05T05:42:04.832Z,4.80
2019-03-05T05:43:05.001Z,4.80
2019-03-05T05:44:05.061Z,4.80
2019-03-05T05:45:04.535Z,4.80
2019-03-05T05:46:04.676Z,4.80
2019-03-05T05:47:04.810Z,4.80
2019-03-05T05:48:05.065Z,4.80
2019-03-05T05:49:05.113Z,4.80
2019-03-05T05:50:04.498Z,4.80
2019-03-05T05:51:04.411Z,4.80
2019-03-05T05:52:04.327Z,4.80
2019-03-05T05:53:04.357Z,4.80
2019-03-05T05:54:04.656Z,4.80
2019-03-05T05:55:04.326Z,4.80
2019-03-05T05:56:04.262Z,4.80
2019-03-05T05:57:04.789Z,4.80
2019-03-05T05:58:05.186Z,4.80
2019-03-05T05:59:04.327Z,4.70
2019-03-05T06:00:04.677Z,4.70
2019-03-05T06:01:04.628Z,4.70
2019-03-05T06:02:04.748Z,4.70
2019-03-05T06:03:04.845Z,4.70
2019-03-05T06:04:05.124Z,4.70
2019-03-05T06:05:04.349Z,4.70
2019-03-05T06:06:04.493Z,4.70
2019-03-05T06:07:05.059Z,4.60
2019-03-05T06:08:04.772Z,4.60
2019-03-05T06:09:04.823Z,4.60
2019-03-05T06:10:04.681Z,4.60
2019-03-05T06:11:04.946Z,4.60
2019-03-05T06:12:05.211Z,4.60
2019-03-05T06:13:04.699Z,4.60
2019-03-05T06:14:04.698Z,4.50
2019-03-05T06:15:04.805Z,4.50
2019-03-05T06:16:05.053Z,4.50
2019-03-05T06:17:04.627Z,4.50
2019-03-05T06:18:04.933Z,4.50
2019-03-05T06:19:04.600Z,4.40
2019-03-05T06:20:05.037Z,4.40
2019-03-05T06:21:04.658Z,4.40
2019-03-05T06:22:05.063Z,4.40
2019-03-05T06:23:05.177Z,4.40
2019-03-05T06:24:04.317Z,4.40
2019-03-05T06:25:04.334Z,4.30
2019-03-05T06:26:04.812Z,4.30
2019-03-05T06:27:04.188Z,4.30
2019-03-05T06:28:04.984Z,4.30
2019-03-05T06:29:09.379Z,4.20
2019-03-05T06:30:04.823Z,4.20
2019-03-05T06:31:04.342Z,4.20
2019-03-05T06:32:04.490Z,4.20
2019-03-05T06:33:05.059Z,4.20
2019-03-05T06:34:05.165Z,4.20
2019-03-05T06:35:04.318Z,4.20
2019-03-05T06:36:04.539Z,4.20
2019-03-05T06:37:04.658Z,4.20
2019-03-05T06:38:04.718Z,4.20
2019-03-05T06:39:05.177Z,4.20
2019-03-05T06:40:04.789Z,4.20
2019-03-05T06:41:05.191Z,4.20
2019-03-05T06:42:05.426Z,4.20
2019-03-05T06:43:04.824Z,4.20
2019-03-05T06:44:05.021Z,4.20
2019-03-05T06:45:04.407Z,4.30
2019-03-05T06:46:04.535Z,4.30
2019-03-05T06:47:04.873Z,4.40
2019-03-05T06:48:05.070Z,4.50
2019-03-05T06:49:09.574Z,4.50
2019-03-05T06:50:05.067Z,4.60
2019-03-05T06:51:05.113Z,4.70
2019-03-05T06:52:04.597Z,4.80
2019-03-05T06:53:04.684Z,4.90
2019-03-05T06:54:04.761Z,5.00
2019-03-05T06:55:04.968Z,5.10
2019-03-05T06:56:04.355Z,5.30
2019-03-05T06:57:04.614Z,5.40
2019-03-05T06:58:04.800Z,5.50
2019-03-05T06:59:04.825Z,5.60
2019-03-05T07:00:04.959Z,5.70
2019-03-05T07:01:05.012Z,5.80
2019-03-05T07:02:04.645Z,5.90
2019-03-05T07:03:05.102Z,6.00
2019-03-05T07:04:04.748Z,6.10
2019-03-05T07:05:04.229Z,6.20
2019-03-05T07:06:04.505Z,6.30
2019-03-05T07:07:04.838Z,6.40
2019-03-05T07:08:04.976Z,6.40
2019-03-05T07:09:04.507Z,6.50
2019-03-05T07:10:04.287Z,6.50
2019-03-05T07:11:04.452Z,6.60
2019-03-05T07:12:04.418Z,6.60
2019-03-05T07:13:04.719Z,6.70
2019-03-05T07:14:04.686Z,6.70
2019-03-05T07:15:05.140Z,6.70
2019-03-05T07:16:04.498Z,6.80
2019-03-05T07:17:05.026Z,6.80
2019-03-05T07:18:04.184Z,6.90
2019-03-05T07:19:04.196Z,6.90
2019-03-05T07:20:04.419Z,6.90
2019-03-05T07:21:04.527Z,6.90
2019-03-05T07:22:05.050Z,6.90
2019-03-05T07:23:04.638Z,6.90
2019-03-05T07:24:04.755Z,6.90
2019-03-05T07:25:05.205Z,7.00
2019-03-05T07:26:04.348Z,7.00
2019-03-05T07:27:04.801Z,7.00
2019-03-05T07:28:04.891Z,7.00
2019-03-05T07:29:09.826Z,6.90
2019-03-05T07:30:04.269Z,6.90
2019-03-05T07:31:04.530Z,6.90
2019-03-05T07:32:04.826Z,6.90
2019-03-05T07:33:04.929Z,6.90
2019-03-05T07:34:04.468Z,6.80
2019-03-05T07:35:04.755Z,6.80
2019-03-05T07:36:05.139Z,6.80
2019-03-05T07:37:04.469Z,6.80
2019-03-05T07:38:04.673Z,6.80
2019-03-05T07:39:04.715Z,6.70
2019-03-05T07:40:04.985Z,6.70
2019-03-05T07:41:05.153Z,6.70
2019-03-05T07:42:05.224Z,6.80
2019-03-05T07:43:05.095Z,6.80
2019-03-05T07:44:05.076Z,6.80
2019-03-05T07:45:04.364Z,6.90
2019-03-05T07:46:04.960Z,6.90
2019-03-05T07:47:04.276Z,7.00
2019-03-05T07:48:04.303Z,7.00
2019-03-05T07:49:09.363Z,7.00
2019-03-05T07:50:04.694Z,7.10
2019-03-05T07:51:04.803Z,7.10
2019-03-05T07:52:05.140Z,7.20
2019-03-05T07:53:04.270Z,7.20
2019-03-05T07:54:04.483Z,7.20
2019-03-05T07:55:13.133Z,7.20
2019-03-05T07:56:04.619Z,7.30
2019-03-05T07:57:04.707Z,7.30
2019-03-05T07:58:05.062Z,7.30
2019-03-05T07:59:04.359Z,7.40
2019-03-05T08:00:05.548Z,7.40
2019-03-05T08:01:04.505Z,7.40
2019-03-05T08:02:04.471Z,7.40
2019-03-05T08:03:04.410Z,7.30
2019-03-05T08:04:04.496Z,7.30
2019-03-05T08:05:04.575Z,7.20
2019-03-05T08:06:05.073Z,7.20
2019-03-05T08:07:04.181Z,7.20
2019-03-05T08:08:04.437Z,7.20
2019-03-05T08:09:04.611Z,7.20
2019-03-05T08:10:04.916Z,7.10
2019-03-05T08:11:04.974Z,7.10
2019-03-05T08:12:04.927Z,7.20
2019-03-05T08:13:05.387Z,7.20
2019-03-05T08:14:04.606Z,7.20
2019-03-05T08:15:04.689Z,7.30
2019-03-05T08:16:04.681Z,7.30
2019-03-05T08:17:04.768Z,7.30
2019-03-05T08:18:04.530Z,7.40
2019-03-05T08:19:04.731Z,7.40
2019-03-05T08:20:05.303Z,7.40
2019-03-05T08:21:04.753Z,7.40
2019-03-05T08:22:05.186Z,7.50
2019-03-05T08:23:04.455Z,7.50
2019-03-05T08:24:04.493Z,7.50
2019-03-05T08:25:04.661Z,7.60
2019-03-05T08:26:04.746Z,7.60
2019-03-05T08:27:04.777Z,7.60
2019-03-05T08:28:04.957Z,7.70
2019-03-05T08:29:09.651Z,7.70
2019-03-05T08:30:13.656Z,7.70
2019-03-05T08:31:05.930Z,7.60
2019-03-05T08:32:04.467Z,7.70
2019-03-05T08:33:04.449Z,7.70
2019-03-05T08:34:04.972Z,7.60
2019-03-05T08:35:04.227Z,7.60
2019-03-05T08:36:07.084Z,7.60
2019-03-05T08:37:04.628Z,7.60
2019-03-05T08:38:05.065Z,7.60
2019-03-05T08:39:04.395Z,7.50
2019-03-05T08:40:04.597Z,7.50
2019-03-05T08:41:04.923Z,7.50
2019-03-05T08:42:04.188Z,7.50
2019-03-05T08:43:04.643Z,7.40
2019-03-05T08:44:04.527Z,7.40
2019-03-05T08:45:04.635Z,7.40
2019-03-05T08:46:04.958Z,7.50
2019-03-05T08:47:04.232Z,7.50
2019-03-05T08:48:04.748Z,7.50
2019-03-05T08:49:05.125Z,7.60
2019-03-05T08:50:04.779Z,7.60
2019-03-05T08:51:04.854Z,7.60
2019-03-05T08:52:05.024Z,7.70
2019-03-05T08:53:05.034Z,7.70
2019-03-05T08:54:07.545Z,7.70
2019-03-05T08:55:04.509Z,7.80
2019-03-05T08:56:04.809Z,7.80
2019-03-05T08:57:04.841Z,7.80
2019-03-05T08:58:10.050Z,7.80
2019-03-05T08:59:04.427Z,7.80
2019-03-05T09:00:04.443Z,7.80
2019-03-05T09:01:05.242Z,7.80
2019-03-05T09:02:04.580Z,7.90
2019-03-05T09:03:04.709Z,7.90
2019-03-05T09:04:04.749Z,7.90
2019-03-05T09:05:05.183Z,7.90
2019-03-05T09:06:04.340Z,8.00
2019-03-05T09:07:04.344Z,7.90
2019-03-05T09:08:04.723Z,8.00
2019-03-05T09:09:04.965Z,8.00
2019-03-05T09:10:04.832Z,8.00
2019-03-05T09:11:05.319Z,8.00
2019-03-05T09:12:04.290Z,7.90
2019-03-05T09:13:04.435Z,7.90
2019-03-05T09:14:04.419Z,7.90
2019-03-05T09:15:04.768Z,7.90
2019-03-05T09:16:04.844Z,7.90
2019-03-05T09:17:04.333Z,7.90
2019-03-05T09:18:04.551Z,8.00
2019-03-05T09:19:04.744Z,8.00
2019-03-05T09:20:05.019Z,8.00
2019-03-05T09:21:04.394Z,8.00
2019-03-05T09:22:04.528Z,8.10
2019-03-05T09:23:04.599Z,8.10
2019-03-05T09:24:04.756Z,8.10
2019-03-05T09:25:04.170Z,8.20
2019-03-05T09:26:04.273Z,8.20
2019-03-05T09:27:04.905Z,8.30
2019-03-05T09:28:07.102Z,8.30
2019-03-05T09:29:10.141Z,8.40
2019-03-05T09:30:04.375Z,8.40
2019-03-05T09:31:04.650Z,8.40
2019-03-05T09:32:04.468Z,8.50
2019-03-05T09:33:05.034Z,8.50
2019-03-05T09:34:04.481Z,8.50
2019-03-05T09:35:04.807Z,8.50
2019-03-05T09:36:05.084Z,8.60
2019-03-05T09:37:04.342Z,8.60
2019-03-05T09:38:04.456Z,8.60
2019-03-05T09:39:05.031Z,8.70
2019-03-05T09:40:05.255Z,8.70
2019-03-05T09:41:04.258Z,8.80
2019-03-05T09:42:04.478Z,8.80
2019-03-05T09:43:04.377Z,8.80
2019-03-05T09:44:04.590Z,8.90
2019-03-05T09:45:04.944Z,8.90
2019-03-05T09:46:04.844Z,8.90
2019-03-05T09:47:05.293Z,8.90
2019-03-05T09:48:04.620Z,8.90
2019-03-05T09:49:04.713Z,8.90
2019-03-05T09:50:04.838Z,8.90
2019-03-05T09:51:04.789Z,8.90
2019-03-05T09:52:04.454Z,8.90
2019-03-05T09:53:04.681Z,8.90
2019-03-05T09:54:04.629Z,8.90
2019-03-05T09:55:05.002Z,8.90
2019-03-05T09:56:05.001Z,8.90
2019-03-05T09:57:05.084Z,8.90
2019-03-05T09:58:08.215Z,8.90
2019-03-05T09:59:04.488Z,8.90
2019-03-05T10:00:04.281Z,8.80
2019-03-05T10:01:04.944Z,8.90
2019-03-05T10:02:05.000Z,8.80
2019-03-05T10:03:05.093Z,8.80
2019-03-05T10:04:04.206Z,8.80
2019-03-05T10:05:04.388Z,8.80
2019-03-05T10:06:04.958Z,8.80
2019-03-05T10:07:04.623Z,8.80
2019-03-05T10:08:04.941Z,8.80
2019-03-05T10:09:04.554Z,8.80
2019-03-05T10:10:04.967Z,8.80
2019-03-05T10:11:04.985Z,8.80
2019-03-05T10:12:04.312Z,8.80
2019-03-05T10:13:04.679Z,8.80
2019-03-05T10:14:04.485Z,8.80
2019-03-05T10:15:05.181Z,8.80
2019-03-05T10:16:04.284Z,8.80
2019-03-05T10:17:04.661Z,8.90
2019-03-05T10:18:12.504Z,8.90
2019-03-05T10:19:04.657Z,8.90
2019-03-05T10:20:04.663Z,8.90
2019-03-05T10:21:04.630Z,8.90
2019-03-05T10:22:05.105Z,8.90
2019-03-05T10:23:04.669Z,8.80
2019-03-05T10:24:10.290Z,8.80
2019-03-05T10:25:06.064Z,8.80
2019-03-05T10:26:05.015Z,8.80
2019-03-05T10:27:05.158Z,8.80
2019-03-05T10:28:04.660Z,8.70
2019-03-05T10:29:09.995Z,8.70
2019-03-05T10:30:04.405Z,8.70
2019-03-05T10:31:04.453Z,8.70
2019-03-05T10:32:04.294Z,8.70
2019-03-05T10:33:04.407Z,8.70
2019-03-05T10:34:04.948Z,8.70
2019-03-05T10:35:04.276Z,8.60
2019-03-05T10:36:04.332Z,8.60
2019-03-05T10:37:12.288Z,8.60
2019-03-05T10:38:04.342Z,8.60
2019-03-05T10:39:04.398Z,8.60
2019-03-05T10:40:04.712Z,8.60
2019-03-05T10:41:04.184Z,8.50
2019-03-05T10:42:04.344Z,8.50
2019-03-05T10:43:08.269Z,8.50
2019-03-05T10:44:04.645Z,8.50
2019-03-05T10:45:05.019Z,8.40
2019-03-05T10:46:05.091Z,8.40
2019-03-05T10:47:04.220Z,8.40
2019-03-05T10:48:04.449Z,8.40
2019-03-05T10:49:04.761Z,8.30
2019-03-05T10:50:14.971Z,8.30
2019-03-05T10:51:04.454Z,8.30
2019-03-05T10:52:04.459Z,8.20
2019-03-05T10:53:05.081Z,8.20
2019-03-05T10:54:04.616Z,8.10
2019-03-05T10:55:04.227Z,8.10
2019-03-05T10:56:04.323Z,8.00
2019-03-05T10:57:04.407Z,8.00
2019-03-05T10:58:04.600Z,7.90
2019-03-05T10:59:05.482Z,7.90
2019-03-05T11:00:04.155Z,7.90
2019-03-05T11:01:04.463Z,7.80
2019-03-05T11:02:04.794Z,7.80
2019-03-05T11:03:05.038Z,7.80
2019-03-05T11:04:04.748Z,7.70
2019-03-05T11:05:04.731Z,7.70
2019-03-05T11:06:04.352Z,7.70
2019-03-05T11:07:04.451Z,7.60
2019-03-05T11:08:04.619Z,7.50
2019-03-05T11:09:04.803Z,7.50
2019-03-05T11:10:04.749Z,7.50
2019-03-05T11:11:12.906Z,7.40
2019-03-05T11:12:04.471Z,7.40
2019-03-05T11:13:04.755Z,7.30
2019-03-05T11:14:04.827Z,7.30
2019-03-05T11:15:05.004Z,7.20
2019-03-05T11:16:05.100Z,7.20
2019-03-05T11:17:04.471Z,7.10
2019-03-05T11:18:04.574Z,7.10
2019-03-05T11:19:04.333Z,7.10
2019-03-05T11:20:04.258Z,7.10
2019-03-05T11:21:04.754Z,7.00
2019-03-05T11:22:04.930Z,7.00
2019-03-05T11:23:04.252Z,7.00
2019-03-05T11:24:04.196Z,6.90
2019-03-05T11:25:04.752Z,7.00
2019-03-05T11:26:04.522Z,6.90
2019-03-05T11:27:04.906Z,6.90
2019-03-05T11:28:05.070Z,6.90
2019-03-05T11:29:05.071Z,6.90
2019-03-05T11:30:05.109Z,6.90
2019-03-05T11:31:05.141Z,6.90
2019-03-05T11:32:04.433Z,6.90
2019-03-05T11:33:04.510Z,6.90
2019-03-05T11:34:04.969Z,6.90
2019-03-05T11:35:05.187Z,6.90
2019-03-05T11:36:05.117Z,6.90
2019-03-05T11:37:04.780Z,7.00
2019-03-05T11:38:04.882Z,7.00
2019-03-05T11:39:04.925Z,7.00
2019-03-05T11:40:05.146Z,6.90
2019-03-05T11:41:04.360Z,6.90
2019-03-05T11:42:04.704Z,7.00
2019-03-05T11:43:05.034Z,6.90
2019-03-05T11:44:05.765Z,6.90
2019-03-05T11:45:07.709Z,6.90
2019-03-05T11:46:04.993Z,7.00
2019-03-05T11:47:04.382Z,6.90
2019-03-05T11:48:04.672Z,6.90
2019-03-05T11:49:09.949Z,6.90
2019-03-05T11:50:04.338Z,6.90
2019-03-05T11:51:04.321Z,6.90
2019-03-05T11:52:04.499Z,6.90
2019-03-05T11:53:04.636Z,6.90
2019-03-05T11:54:04.528Z,6.90
2019-03-05T11:55:04.663Z,6.90
2019-03-05T11:56:04.319Z,6.90
2019-03-05T11:57:04.176Z,6.90
2019-03-05T11:58:04.232Z,6.90
2019-03-05T11:59:04.337Z,6.90
2019-03-05T12:00:04.478Z,6.80
2019-03-05T12:01:04.917Z,6.80
2019-03-05T12:02:05.068Z,6.80
2019-03-05T12:03:04.304Z,6.80
2019-03-05T12:04:04.509Z,6.80
2019-03-05T12:05:04.972Z,6.80
2019-03-05T12:06:05.003Z,6.80
2019-03-05T12:07:05.172Z,6.80
2019-03-05T12:08:04.174Z,6.80
2019-03-05T12:09:04.852Z,6.80
2019-03-05T12:10:04.967Z,6.80
2019-03-05T12:11:04.630Z,6.80
2019-03-05T12:12:04.981Z,6.80
2019-03-05T12:13:04.507Z,6.80
2019-03-05T12:14:04.481Z,6.70
2019-03-05T12:15:04.618Z,6.80
2019-03-05T12:16:04.670Z,6.80
2019-03-05T12:17:04.483Z,6.80
2019-03-05T12:18:04.900Z,6.80
2019-03-05T12:19:05.145Z,6.80
2019-03-05T12:20:04.234Z,6.80
2019-03-05T12:21:04.871Z,6.80
2019-03-05T12:22:05.051Z,6.80
2019-03-05T12:23:06.551Z,6.80
2019-03-05T12:24:04.888Z,6.90
2019-03-05T12:25:05.018Z,6.90
2019-03-05T12:26:05.072Z,6.90
2019-03-05T12:27:04.736Z,6.90
2019-03-05T12:28:10.042Z,7.00
2019-03-05T12:29:04.615Z,7.00
2019-03-05T12:30:05.137Z,7.00
2019-03-05T12:31:04.266Z,7.00
2019-03-05T12:32:04.418Z,7.00
2019-03-05T12:33:06.551Z,7.00
2019-03-05T12:34:04.396Z,7.10
2019-03-05T12:35:04.860Z,7.10
2019-03-05T12:36:04.482Z,7.10
2019-03-05T12:37:04.745Z,7.10
2019-03-05T12:38:04.239Z,7.10
2019-03-05T12:39:04.951Z,7.10
2019-03-05T12:40:04.489Z,7.00
2019-03-05T12:41:04.906Z,7.00
2019-03-05T12:42:04.306Z,7.00
2019-03-05T12:43:04.677Z,7.00
2019-03-05T12:44:07.936Z,7.00
2019-03-05T12:45:04.291Z,7.00
2019-03-05T12:46:07.454Z,7.00
2019-03-05T12:47:07.476Z,7.00
2019-03-05T12:48:04.917Z,6.90
2019-03-05T12:49:05.167Z,6.90
2019-03-05T12:50:04.869Z,6.90
2019-03-05T12:51:05.005Z,6.90
2019-03-05T12:52:04.524Z,6.90
2019-03-05T12:53:04.166Z,6.90
2019-03-05T12:54:04.356Z,6.80
2019-03-05T12:55:04.511Z,6.80
2019-03-05T12:56:04.654Z,6.80
2019-03-05T12:57:09.761Z,6.80
2019-03-05T12:58:05.130Z,6.70
2019-03-05T12:59:04.419Z,6.70
2019-03-05T13:00:04.439Z,6.60
2019-03-05T13:01:04.984Z,6.60
2019-03-05T13:02:05.079Z,6.60
2019-03-05T13:03:04.767Z,6.50
2019-03-05T13:04:04.830Z,6.50
2019-03-05T13:05:04.640Z,6.50
2019-03-05T13:06:04.790Z,6.40
2019-03-05T13:07:05.144Z,6.40
2019-03-05T13:08:04.476Z,6.40
2019-03-05T13:09:04.483Z,6.40
2019-03-05T13:10:05.017Z,6.40
2019-03-05T13:11:04.294Z,6.40
2019-03-05T13:12:04.317Z,6.40
2019-03-05T13:13:04.857Z,6.40
2019-03-05T13:14:06.015Z,6.40
2019-03-05T13:15:04.649Z,6.40
2019-03-05T13:16:04.291Z,6.40
2019-03-05T13:17:04.822Z,6.40
2019-03-05T13:18:04.320Z,6.40